Wednesday, October 17, 2018, 4:19 AM EDT
Back to Local

KMTN, Baltimore / Martin

Location: Middle River, MD, United States Lat: 39.333
Local Time: 4:19 AM EDT ( 8:19 GMT) Lon: -76.417
Time Zone: US/Eastern Elev: 22 ft

Show me the last for .
Show Decoded

2018-10-17 04:00 METAR KMTN 170800Z AUTO 00000KT 10SM CLR 11/10 A3006 RMK AO2 =
2018-10-17 03:42 METAR KMTN 170742Z AUTO 00000KT 10SM CLR 11/10 A3007 RMK AO2 =
2018-10-17 03:21 METAR KMTN 170721Z AUTO 00000KT 10SM CLR 11/10 A3007 RMK AO2 =
2018-10-17 03:00 METAR KMTN 170700Z AUTO 00000KT 10SM CLR 11/10 A3007 RMK AO2 =
2018-10-17 02:42 METAR KMTN 170642Z AUTO 00000KT 10SM SCT036 11/10 A3008 RMK AO2 =
2018-10-17 02:21 METAR KMTN 170621Z AUTO 30003KT 10SM OVC034 12/10 A3009 RMK AO2 =
2018-10-17 02:00 METAR KMTN 170600Z AUTO 00000KT 10SM OVC032 12/11 A3009 RMK AO2 =
2018-10-17 01:42 METAR KMTN 170542Z AUTO 00000KT 10SM BKN030 12/10 A3010 RMK AO2 =
2018-10-17 01:21 METAR KMTN 170521Z AUTO 25004KT 10SM SCT033 12/10 A3010 RMK AO2 =
2018-10-17 01:00 METAR KMTN 170500Z AUTO 22003KT 10SM CLR 13/10 A3010 RMK AO2 =
2018-10-17 00:00 METAR KMTN 170400Z AUTO 00000KT 10SM CLR 13/09 A3011 RMK AO2 =
2018-10-16 23:42 METAR KMTN 170342Z AUTO 23003KT 10SM CLR 13/09 A3012 RMK AO2 =
2018-10-16 23:21 METAR KMTN 170321Z AUTO 18004KT 10SM CLR 13/08 A3011 RMK AO2 =
2018-10-16 23:00 METAR KMTN 170300Z AUTO 00000KT 10SM SCT050 13/07 A3012 RMK AO2 =
2018-10-16 22:42 METAR KMTN 170242Z AUTO 19003KT 10SM CLR 13/08 A3012 RMK AO2 =
2018-10-16 22:21 METAR KMTN 170221Z AUTO 17003KT 10SM CLR 13/07 A3012 RMK AO2 =
2018-10-16 21:45 METAR KMTN 170145Z 00000KT 10SM SKC 13/08 A3012 =
2018-10-16 20:45 METAR KMTN 170045Z 00000KT 10SM BKN120 12/08 A3013 =
2018-10-16 19:45 METAR KMTN 162345Z 00000KT 10SM BKN120 13/06 A3013 =
2018-10-16 18:45 METAR KMTN 162245Z 27007KT 10SM BKN120 13/06 A3014 =
2018-10-16 17:45 METAR KMTN 162145Z 27007KT 10SM BKN120 14/04 A3012 =
2018-10-16 16:45 METAR KMTN 162045Z 27007KT 10SM BKN150 16/04 A3014 =
2018-10-16 15:45 METAR KMTN 161945Z 27006KT 10SM BKN160 BKN250 16/04 A3013 =
2018-10-16 14:45 METAR KMTN 161845Z 26007KT 10SM BKN160 16/05 A3015 =
2018-10-16 13:45 METAR KMTN 161745Z 28003KT 10SM SCT160 SCT250 16/06 A3017 =
2018-10-16 12:54 METAR KMTN 161654Z 30007KT 10SM SCT160 BKNN250 14/06 A3020 =
2018-10-16 11:45 METAR KMTN 161545Z 32005KT 10SM SCT160 BKN200 13/06 A3024 =
2018-10-16 10:45 METAR KMTN 161445Z 30006KT 10SM BKN200 13/07 A3024 =
2018-10-16 09:45 METAR KMTN 161345Z 32008KT 10SM BKN250 13/06 A3024 =
2018-10-16 08:45 METAR KMTN 161245Z 32007KT 10SM BKN160 BKN250 12/07 A3023 =
2018-10-16 07:45 METAR KMTN 161145Z 31008KT 10SM BKN130 12/06 A3019 =
2018-10-16 06:45 METAR KMTN 161045Z 31008KT 10SM SCT070 BKN130 13/06 A3018 =
2018-10-16 05:45 METAR KMTN 160945Z 32006KT 10SM SCT130 13/06 A3017 =
2018-10-16 05:30 METAR KMTN 160930Z AUTO 29008KT 10SM CLR 13/06 A3016 RMK AO2 =
2018-10-16 05:21 METAR KMTN 160921Z AUTO 29007KT 10SM CLR 13/06 A3016 RMK AO2 =
2018-10-16 05:00 METAR KMTN 160900Z AUTO 28011G16KT 10SM CLR 14/06 A3015 RMK AO2 =
2018-10-16 04:42 METAR KMTN 160842Z AUTO 28009G14KT 10SM CLR 14/07 A3014 RMK AO2 =
2018-10-16 04:21 METAR KMTN 160821Z AUTO 30008G15KT 10SM CLR 15/08 A3013 RMK AO2 =

Support USWX by starting your Amazon purchase here.